createdAt,value
2022-12-23T00:01:34.823Z,7.60
2022-12-23T00:04:03.178Z,7.90
2022-12-23T00:06:31.336Z,6.70
2022-12-23T00:09:00.452Z,8.60
2022-12-23T00:11:29.011Z,7.40
2022-12-23T00:14:21.270Z,6.00
2022-12-23T00:16:51.346Z,6.70
2022-12-23T00:19:19.992Z,9.30
2022-12-23T00:21:48.827Z,7.30
2022-12-23T00:24:17.410Z,6.60
2022-12-23T00:26:45.618Z,6.70
2022-12-23T00:29:13.582Z,6.60
2022-12-23T00:31:41.739Z,7.60
2022-12-23T00:34:12.371Z,7.50
2022-12-23T00:36:41.120Z,6.40
2022-12-23T00:39:31.489Z,6.50
2022-12-23T00:42:18.270Z,6.90
2022-12-23T00:44:46.289Z,6.90
2022-12-23T00:47:34.479Z,5.80
2022-12-23T00:50:02.462Z,11.30
2022-12-23T00:52:30.624Z,6.60
2022-12-23T00:54:58.592Z,6.00
2022-12-23T00:57:26.758Z,6.90
2022-12-23T00:59:54.803Z,5.40
2022-12-23T01:02:41.473Z,6.50
2022-12-23T01:05:46.997Z,5.30
2022-12-23T01:08:15.094Z,6.60
2022-12-23T01:10:42.979Z,6.40
2022-12-23T01:13:10.903Z,5.40
2022-12-23T01:15:38.982Z,6.10
2022-12-23T01:18:07.088Z,6.40
2022-12-23T01:20:37.368Z,6.50
2022-12-23T01:23:05.758Z,4.80
2022-12-23T01:25:34.150Z,5.60
2022-12-23T01:28:02.105Z,4.90
2022-12-23T01:30:30.048Z,5.40
2022-12-23T01:32:58.385Z,5.30
2022-12-23T01:35:26.420Z,6.20
2022-12-23T01:37:54.395Z,5.40
2022-12-23T01:40:22.677Z,5.50
2022-12-23T01:42:51.133Z,5.90
2022-12-23T01:45:27.862Z,4.80
2022-12-23T01:48:11.784Z,5.30
2022-12-23T01:50:48.667Z,5.30
2022-12-23T01:53:42.714Z,5.70
2022-12-23T01:56:38.145Z,5.10
2022-12-23T02:02:25.096Z,5.60
2022-12-23T02:04:54.507Z,5.10
2022-12-23T02:07:41.542Z,6.10
2022-12-23T02:10:10.483Z,4.80
2022-12-23T02:13:34.842Z,5.50
2022-12-23T02:16:17.221Z,4.80
2022-12-23T02:19:05.808Z,4.60
2022-12-23T02:21:59.059Z,5.50
2022-12-23T02:25:24.798Z,5.20
2022-12-23T02:28:36.011Z,4.90
2022-12-23T02:31:16.419Z,5.60
2022-12-23T02:34:16.078Z,5.10
2022-12-23T02:36:59.484Z,4.90
2022-12-23T02:39:51.850Z,5.50
2022-12-23T02:42:37.741Z,4.60
2022-12-23T02:45:23.511Z,5.20
2022-12-23T02:48:07.059Z,4.90
2022-12-23T02:50:39.320Z,6.10
2022-12-23T02:53:26.477Z,5.30
2022-12-23T02:55:57.892Z,4.90
2022-12-23T02:58:34.268Z,4.40
2022-12-23T03:01:07.226Z,5.40
2022-12-23T03:03:37.840Z,6.20
2022-12-23T03:06:22.736Z,4.80
2022-12-23T03:08:56.009Z,5.30
2022-12-23T03:11:50.844Z,5.40
2022-12-23T03:14:40.831Z,5.50
2022-12-23T03:17:53.303Z,5.00
2022-12-23T03:20:38.109Z,5.40
2022-12-23T03:23:34.710Z,4.90
2022-12-23T03:26:17.036Z,5.10
2022-12-23T03:28:52.025Z,4.80
2022-12-23T03:31:27.584Z,4.30
2022-12-23T03:34:06.155Z,4.80
2022-12-23T03:36:47.428Z,4.80
2022-12-23T03:39:22.219Z,5.60
2022-12-23T03:44:57.117Z,5.10
2022-12-23T03:47:45.427Z,4.80
2022-12-23T03:50:17.917Z,4.30
2022-12-23T03:53:20.927Z,4.90
2022-12-23T03:56:16.995Z,4.80
2022-12-23T03:59:34.132Z,4.30
2022-12-23T04:02:18.619Z,5.50
2022-12-23T04:05:25.778Z,4.50
2022-12-23T04:08:10.504Z,4.10
2022-12-23T04:10:38.967Z,4.20
2022-12-23T04:13:07.546Z,4.10
2022-12-23T04:15:44.385Z,5.10
2022-12-23T04:18:12.530Z,4.70
2022-12-23T04:20:40.681Z,3.80
2022-12-23T04:23:08.562Z,4.90
2022-12-23T04:25:36.930Z,4.70
2022-12-23T04:28:05.330Z,4.50
2022-12-23T04:30:34.603Z,4.80
2022-12-23T04:33:03.830Z,3.20
2022-12-23T04:35:31.977Z,4.50
2022-12-23T04:38:00.257Z,4.60
2022-12-23T04:40:28.427Z,5.00
2022-12-23T04:42:56.497Z,4.50
2022-12-23T04:45:24.469Z,4.30
2022-12-23T04:47:54.418Z,5.10
2022-12-23T04:50:22.469Z,4.70
2022-12-23T04:52:50.532Z,4.10
2022-12-23T04:55:18.804Z,5.20
2022-12-23T04:57:46.751Z,4.10
2022-12-23T05:00:15.774Z,4.40
2022-12-23T05:02:43.879Z,4.50
2022-12-23T05:05:12.059Z,4.10
2022-12-23T05:07:39.979Z,3.60
2022-12-23T05:10:09.575Z,4.20
2022-12-23T05:12:37.560Z,3.90
2022-12-23T05:15:06.552Z,4.60
2022-12-23T05:17:35.133Z,4.90
2022-12-23T05:20:03.128Z,4.00
2022-12-23T05:22:31.284Z,4.00
2022-12-23T05:24:59.492Z,3.80
2022-12-23T05:27:27.424Z,4.30
2022-12-23T05:29:55.473Z,3.40
2022-12-23T05:32:23.367Z,3.90
2022-12-23T05:34:51.517Z,4.40
2022-12-23T05:37:19.628Z,4.30
2022-12-23T05:39:47.880Z,3.20
2022-12-23T05:42:19.438Z,3.70
2022-12-23T05:44:48.134Z,4.10
2022-12-23T05:47:16.126Z,4.00
2022-12-23T05:49:43.989Z,4.10
2022-12-23T05:52:11.926Z,4.00
2022-12-23T05:54:40.142Z,4.10
2022-12-23T05:57:08.893Z,3.20
2022-12-23T05:59:36.966Z,3.70
2022-12-23T06:02:05.555Z,4.90
2022-12-23T06:04:33.625Z,3.10
2022-12-23T06:07:01.802Z,4.10
2022-12-23T06:09:29.865Z,3.90
2022-12-23T06:11:58.131Z,4.00
2022-12-23T06:14:29.186Z,3.60
2022-12-23T06:16:57.741Z,3.50
2022-12-23T06:19:26.881Z,4.00
2022-12-23T06:21:54.901Z,3.90
2022-12-23T06:24:23.533Z,3.70
2022-12-23T06:26:56.815Z,4.30
2022-12-23T06:29:25.735Z,4.40
2022-12-23T06:31:54.006Z,3.90
2022-12-23T06:34:22.203Z,3.60
2022-12-23T06:36:50.341Z,3.30
2022-12-23T06:39:18.422Z,4.50
2022-12-23T06:41:46.990Z,4.70
2022-12-23T06:44:15.353Z,4.50
2022-12-23T06:46:43.431Z,4.30
2022-12-23T06:49:13.791Z,4.00
2022-12-23T06:51:42.228Z,4.20
2022-12-23T06:54:14.519Z,4.20
2022-12-23T06:56:42.394Z,3.90
2022-12-23T06:59:10.513Z,3.90
2022-12-23T07:01:38.680Z,4.90
2022-12-23T07:04:06.808Z,4.20
2022-12-23T07:06:34.894Z,4.90
2022-12-23T07:09:02.765Z,4.30
2022-12-23T07:11:30.907Z,3.80
2022-12-23T07:14:00.533Z,4.50
2022-12-23T07:16:28.912Z,4.30
2022-12-23T07:18:56.975Z,4.50
2022-12-23T07:21:29.391Z,3.70
2022-12-23T07:23:58.137Z,4.60
2022-12-23T07:26:26.722Z,4.70
2022-12-23T07:28:54.688Z,4.20
2022-12-23T07:31:23.027Z,4.50
2022-12-23T07:33:51.095Z,4.30
2022-12-23T07:36:19.413Z,4.40
2022-12-23T07:38:51.805Z,4.50
2022-12-23T07:41:19.983Z,6.90
2022-12-23T07:43:48.392Z,5.00
2022-12-23T07:46:16.559Z,4.30
2022-12-23T07:48:44.675Z,5.30
2022-12-23T07:51:12.701Z,5.80
2022-12-23T07:53:40.836Z,6.10
2022-12-23T07:56:09.212Z,5.30
2022-12-23T07:58:37.383Z,5.30
2022-12-23T08:01:10.231Z,7.00
2022-12-23T08:03:38.585Z,5.90
2022-12-23T08:06:12.803Z,5.90
2022-12-23T08:08:45.384Z,6.60
2022-12-23T08:11:16.437Z,6.30
2022-12-23T08:13:46.382Z,7.00
2022-12-23T08:16:14.602Z,6.30
2022-12-23T08:18:42.832Z,6.10
2022-12-23T08:21:16.832Z,5.70
2022-12-23T08:23:47.551Z,5.50
2022-12-23T08:26:22.222Z,7.80
2022-12-23T08:28:53.723Z,5.70
2022-12-23T08:31:30.214Z,6.10
2022-12-23T08:34:01.018Z,5.60
2022-12-23T08:36:33.124Z,5.40
2022-12-23T08:39:07.342Z,5.40
2022-12-23T08:41:43.602Z,6.10
2022-12-23T08:44:13.582Z,5.00
2022-12-23T08:46:42.905Z,5.20
2022-12-23T08:49:11.850Z,4.40
2022-12-23T08:51:40.422Z,4.70
2022-12-23T08:54:10.353Z,5.90
2022-12-23T08:56:42.215Z,4.20
2022-12-23T08:59:19.665Z,4.70
2022-12-23T09:01:48.642Z,4.90
2022-12-23T09:04:17.578Z,5.10
2022-12-23T09:06:46.065Z,4.70
2022-12-23T09:09:16.195Z,4.60
2022-12-23T09:11:44.873Z,4.20
2022-12-23T09:14:13.888Z,4.60
2022-12-23T09:16:43.869Z,4.70
2022-12-23T09:19:14.087Z,6.00
2022-12-23T09:21:42.792Z,4.40
2022-12-23T09:24:11.589Z,4.90
2022-12-23T09:26:40.580Z,4.00
2022-12-23T09:29:10.497Z,4.60
2022-12-23T09:31:39.986Z,4.90
2022-12-23T09:34:12.404Z,4.80
2022-12-23T09:36:41.264Z,4.50
2022-12-23T09:39:11.578Z,5.60
2022-12-23T09:42:34.241Z,7.00
2022-12-23T09:45:40.168Z,7.60
2022-12-23T09:48:18.968Z,8.30
2022-12-23T09:50:48.431Z,6.20
2022-12-23T09:53:25.707Z,6.00
2022-12-23T09:56:16.354Z,6.60
2022-12-23T09:59:35.267Z,6.90
2022-12-23T10:02:44.927Z,6.40
2022-12-23T10:05:52.220Z,7.80
2022-12-23T10:08:29.337Z,8.60
2022-12-23T10:11:27.983Z,8.40
2022-12-23T10:14:31.530Z,6.90
2022-12-23T10:17:18.297Z,6.60
2022-12-23T10:19:51.985Z,7.20
2022-12-23T10:22:39.202Z,6.80
2022-12-23T10:25:47.914Z,8.30
2022-12-23T10:28:22.673Z,8.30
2022-12-23T10:31:31.094Z,6.90
2022-12-23T10:34:23.641Z,6.90
2022-12-23T10:37:19.998Z,7.00
2022-12-23T10:40:02.490Z,7.80
2022-12-23T10:42:51.647Z,6.00
2022-12-23T10:45:32.075Z,7.70
2022-12-23T10:48:26.954Z,7.10
2022-12-23T10:51:24.794Z,8.20
2022-12-23T10:53:59.253Z,6.60
2022-12-23T10:56:31.715Z,7.10
2022-12-23T10:59:01.440Z,6.80
2022-12-23T11:01:32.687Z,6.80
2022-12-23T11:04:13.749Z,8.00
2022-12-23T11:07:18.100Z,5.90
2022-12-23T11:09:50.400Z,7.50
2022-12-23T11:12:27.367Z,5.70
2022-12-23T11:15:00.178Z,5.80
2022-12-23T11:17:35.806Z,6.90
2022-12-23T11:20:21.727Z,6.20
2022-12-23T11:23:04.787Z,6.70
2022-12-23T11:25:44.199Z,6.60
2022-12-23T11:28:18.919Z,6.50
2022-12-23T11:31:08.906Z,6.20
2022-12-23T11:33:49.653Z,6.10
2022-12-23T11:36:25.540Z,7.80
2022-12-23T11:39:23.380Z,6.60
2022-12-23T11:42:05.081Z,5.90
2022-12-23T11:44:51.940Z,6.60
2022-12-23T11:47:41.528Z,6.40
2022-12-23T11:50:41.383Z,6.50
2022-12-23T11:53:22.373Z,6.10
2022-12-23T11:56:10.961Z,5.80
2022-12-23T11:58:49.710Z,6.10
2022-12-23T12:01:25.315Z,6.70
2022-12-23T12:04:02.427Z,6.20
2022-12-23T12:06:35.421Z,6.50
2022-12-23T12:09:07.608Z,7.20
2022-12-23T12:11:47.875Z,6.80
2022-12-23T12:14:44.421Z,5.50
2022-12-23T12:17:36.613Z,5.30
2022-12-23T12:20:35.192Z,6.10
2022-12-23T12:23:14.128Z,5.70
2022-12-23T12:26:08.023Z,7.30
2022-12-23T12:28:46.421Z,5.70
2022-12-23T12:31:43.872Z,5.90
2022-12-23T12:34:39.586Z,6.50
2022-12-23T12:37:35.759Z,5.90
2022-12-23T12:40:46.420Z,5.90
2022-12-23T12:43:30.086Z,6.10
2022-12-23T12:46:17.961Z,5.70
2022-12-23T12:49:10.045Z,6.50
2022-12-23T12:51:55.417Z,6.80
2022-12-23T12:54:48.299Z,7.20
2022-12-23T12:57:22.190Z,6.10
2022-12-23T13:00:06.108Z,5.80
2022-12-23T13:03:19.144Z,7.30
2022-12-23T13:06:47.465Z,5.50
2022-12-23T13:10:00.772Z,5.70
2022-12-23T13:12:46.651Z,5.70
2022-12-23T13:15:47.999Z,6.10
2022-12-23T13:18:53.170Z,6.10
2022-12-23T13:21:49.499Z,6.30
2022-12-23T13:24:39.667Z,7.50
2022-12-23T13:27:36.637Z,5.90
2022-12-23T13:30:20.296Z,5.70
2022-12-23T13:33:10.346Z,6.00
2022-12-23T13:35:47.335Z,5.50
2022-12-23T13:38:47.449Z,5.50
2022-12-23T13:41:41.442Z,5.60
2022-12-23T13:44:16.268Z,5.40
2022-12-23T13:47:08.009Z,5.90
2022-12-23T13:49:59.713Z,6.20
2022-12-23T13:53:01.992Z,5.50
2022-12-23T13:56:05.281Z,5.30
2022-12-23T13:58:35.824Z,6.90
2022-12-23T14:01:12.039Z,7.60
2022-12-23T14:03:43.231Z,8.30
2022-12-23T14:06:24.115Z,7.60
2022-12-23T14:08:56.114Z,8.80
2022-12-23T14:11:30.015Z,8.90
2022-12-23T14:14:06.656Z,7.50
2022-12-23T14:16:49.252Z,8.30
2022-12-23T14:19:45.913Z,8.30
2022-12-23T14:22:40.905Z,7.90
2022-12-23T14:25:50.551Z,6.90
2022-12-23T14:28:47.095Z,7.70
2022-12-23T14:31:47.985Z,7.80
2022-12-23T14:34:20.412Z,7.30
2022-12-23T14:37:27.423Z,9.10
2022-12-23T14:39:55.971Z,8.20
2022-12-23T14:42:43.631Z,7.50
2022-12-23T14:45:42.447Z,6.70
2022-12-23T14:48:33.826Z,7.50
2022-12-23T14:51:11.264Z,6.80
2022-12-23T14:53:58.742Z,6.80
2022-12-23T14:56:43.602Z,7.80
2022-12-23T14:59:51.438Z,6.70
2022-12-23T15:02:31.185Z,6.80
2022-12-23T15:05:00.775Z,7.60
2022-12-23T15:07:42.998Z,6.80
2022-12-23T15:10:24.189Z,6.00
2022-12-23T15:12:58.068Z,7.40
2022-12-23T15:15:30.195Z,6.20
2022-12-23T15:18:12.941Z,8.00
2022-12-23T15:20:41.928Z,6.20
2022-12-23T15:23:16.953Z,6.40
2022-12-23T15:26:06.060Z,6.70
2022-12-23T15:28:41.251Z,6.90
2022-12-23T15:31:32.631Z,6.10
2022-12-23T15:34:17.035Z,6.70
2022-12-23T15:36:48.197Z,6.30
2022-12-23T15:39:44.144Z,6.60
2022-12-23T15:42:26.505Z,6.10
2022-12-23T15:44:55.086Z,6.00
2022-12-23T15:47:36.472Z,5.30
2022-12-23T15:50:15.777Z,6.90
2022-12-23T15:52:48.979Z,6.70
2022-12-23T15:55:33.683Z,6.10
2022-12-23T15:58:04.382Z,6.20
2022-12-23T16:00:54.087Z,6.90
2022-12-23T16:03:36.160Z,6.40
2022-12-23T16:06:20.304Z,7.00
2022-12-23T16:09:19.275Z,6.50
2022-12-23T16:12:04.950Z,6.10
2022-12-23T16:14:40.668Z,5.80
2022-12-23T16:19:56.152Z,6.70
2022-12-23T16:22:35.383Z,7.60
2022-12-23T16:25:33.660Z,6.70
2022-12-23T16:28:10.360Z,6.80
2022-12-23T16:30:43.201Z,7.10
2022-12-23T16:33:45.050Z,6.70
2022-12-23T16:36:37.254Z,7.50
2022-12-23T16:39:21.983Z,7.60
2022-12-23T16:44:21.182Z,6.70
2022-12-23T16:46:52.987Z,7.90
2022-12-23T16:49:32.923Z,7.70
2022-12-23T16:52:08.835Z,7.40
2022-12-23T16:54:43.095Z,7.30
2022-12-23T16:57:14.496Z,6.80
2022-12-23T16:59:44.056Z,7.20
2022-12-23T17:02:24.118Z,7.40
2022-12-23T17:04:56.987Z,6.80
2022-12-23T17:07:28.233Z,7.50
2022-12-23T17:09:57.089Z,7.30
2022-12-23T17:12:26.325Z,6.90
2022-12-23T17:14:55.166Z,8.30
2022-12-23T17:17:26.103Z,7.70
2022-12-23T17:19:56.486Z,7.90
2022-12-23T17:22:25.899Z,7.70
2022-12-23T17:24:54.051Z,7.80
2022-12-23T17:27:22.541Z,8.00
2022-12-23T17:29:51.214Z,6.40
2022-12-23T17:32:20.004Z,7.10
2022-12-23T17:34:48.895Z,7.30
2022-12-23T17:37:25.292Z,7.10
2022-12-23T17:39:53.812Z,7.20
2022-12-23T17:42:25.878Z,7.00
2022-12-23T17:44:54.423Z,7.10
2022-12-23T17:47:23.083Z,7.10
2022-12-23T17:49:52.297Z,7.10
2022-12-23T17:52:24.101Z,7.10
2022-12-23T17:54:52.881Z,8.10
2022-12-23T17:57:25.187Z,7.10
2022-12-23T17:59:54.826Z,7.20
2022-12-23T18:02:33.214Z,6.80
2022-12-23T18:05:11.127Z,7.70
2022-12-23T18:07:39.297Z,7.20
2022-12-23T18:10:12.797Z,7.90
2022-12-23T18:12:43.855Z,7.20
2022-12-23T18:15:24.404Z,6.90
2022-12-23T18:17:53.914Z,6.90
2022-12-23T18:20:26.518Z,7.10
2022-12-23T18:22:55.639Z,7.50
2022-12-23T18:25:27.361Z,6.70
2022-12-23T18:27:55.420Z,7.10
2022-12-23T18:30:23.694Z,6.70
2022-12-23T18:32:51.863Z,6.50
2022-12-23T18:35:34.910Z,7.20
2022-12-23T18:38:03.071Z,6.70
2022-12-23T18:40:33.431Z,6.60
2022-12-23T18:43:02.365Z,6.60
2022-12-23T18:45:41.971Z,7.20
2022-12-23T18:48:11.011Z,6.20
2022-12-23T18:50:42.622Z,6.80
2022-12-23T18:53:24.631Z,6.70
2022-12-23T18:55:55.394Z,7.90
2022-12-23T18:58:25.435Z,7.10
2022-12-23T19:00:57.112Z,6.60
2022-12-23T19:03:29.500Z,7.30
2022-12-23T19:06:06.899Z,7.10
2022-12-23T19:08:37.798Z,7.10
2022-12-23T19:11:13.224Z,7.30
2022-12-23T19:13:41.506Z,7.10
2022-12-23T19:16:16.042Z,7.10
2022-12-23T19:21:14.826Z,5.90
2022-12-23T19:23:44.233Z,8.20
2022-12-23T19:26:14.750Z,8.20
2022-12-23T19:28:43.047Z,6.90
2022-12-23T19:31:14.339Z,7.50
2022-12-23T19:33:46.727Z,6.30
2022-12-23T19:36:23.011Z,7.10
2022-12-23T19:38:52.328Z,7.40
2022-12-23T19:41:20.624Z,6.90
2022-12-23T19:43:48.789Z,7.40
2022-12-23T19:46:18.109Z,8.00
2022-12-23T19:48:55.200Z,9.10
2022-12-23T19:51:23.482Z,7.40
2022-12-23T19:53:53.070Z,7.70
2022-12-23T19:56:22.043Z,8.80
2022-12-23T19:58:51.233Z,9.50
2022-12-23T20:01:24.103Z,7.20
2022-12-23T20:03:55.324Z,8.20
2022-12-23T20:06:28.326Z,7.90
2022-12-23T20:09:00.932Z,7.90
2022-12-23T20:11:33.897Z,8.00
2022-12-23T20:14:04.776Z,8.30
2022-12-23T20:16:34.625Z,8.60
2022-12-23T20:19:03.469Z,8.90
2022-12-23T20:21:32.050Z,8.60
2022-12-23T20:24:00.899Z,7.90
2022-12-23T20:26:29.331Z,9.00
2022-12-23T20:28:58.924Z,8.70
2022-12-23T20:31:30.547Z,10.20
2022-12-23T20:34:01.311Z,8.00
2022-12-23T20:36:34.732Z,8.70
2022-12-23T20:39:05.239Z,7.20
2022-12-23T20:41:34.380Z,9.90
2022-12-23T20:44:33.120Z,9.20
2022-12-23T20:46:53.206Z,8.80
2022-12-23T20:49:22.513Z,9.30
2022-12-23T20:51:51.613Z,8.30
2022-12-23T20:54:19.982Z,9.70
2022-12-23T20:56:48.170Z,9.90
2022-12-23T20:59:18.790Z,9.70
2022-12-23T21:01:47.296Z,8.70
2022-12-23T21:04:17.520Z,10.30
2022-12-23T21:06:45.946Z,9.30
2022-12-23T21:09:16.852Z,10.00
2022-12-23T21:11:47.908Z,10.00
2022-12-23T21:14:16.470Z,9.80
2022-12-23T21:16:45.632Z,9.40
2022-12-23T21:19:19.075Z,9.30
2022-12-23T21:21:50.200Z,15.60
2022-12-23T21:24:21.214Z,22.40
2022-12-23T21:26:56.537Z,26.80
2022-12-23T21:29:26.654Z,32.20
2022-12-23T21:31:55.418Z,32.20
2022-12-23T21:34:24.059Z,32.90
2022-12-23T21:36:52.186Z,32.80
2022-12-23T21:39:20.812Z,34.10
2022-12-23T21:41:51.671Z,34.20
2022-12-23T21:44:20.138Z,31.70
2022-12-23T21:46:51.350Z,30.70
2022-12-23T21:49:21.589Z,31.70
2022-12-23T21:51:50.731Z,25.00
2022-12-23T21:54:19.096Z,27.40
2022-12-23T21:56:47.473Z,31.50
2022-12-23T21:59:16.047Z,26.30
2022-12-23T22:01:45.044Z,26.30
2022-12-23T22:04:13.833Z,25.90
2022-12-23T22:06:45.875Z,25.10
2022-12-23T22:09:18.567Z,24.30
2022-12-23T22:11:48.556Z,19.70
2022-12-23T22:14:19.845Z,23.20
2022-12-23T22:16:48.317Z,26.60
2022-12-23T22:19:16.685Z,30.50
2022-12-23T22:21:45.168Z,27.50
2022-12-23T22:24:13.555Z,28.40
2022-12-23T22:26:42.566Z,27.30
2022-12-23T22:29:12.254Z,25.40
2022-12-23T22:31:50.858Z,27.00
2022-12-23T22:34:22.751Z,21.60
2022-12-23T22:36:51.376Z,27.00
2022-12-23T22:39:21.987Z,23.80
2022-12-23T22:41:52.316Z,25.50
2022-12-23T22:44:22.416Z,22.30
2022-12-23T22:46:51.183Z,21.40
2022-12-23T22:49:19.774Z,21.50
2022-12-23T22:51:48.267Z,22.20
2022-12-23T22:54:16.732Z,22.70
2022-12-23T22:56:48.287Z,24.10
2022-12-23T22:59:23.777Z,23.90
2022-12-23T23:01:53.968Z,19.80
2022-12-23T23:04:22.301Z,20.10
2022-12-23T23:06:51.037Z,21.10
2022-12-23T23:09:22.366Z,21.00
2022-12-23T23:11:51.886Z,18.60
2022-12-23T23:14:21.573Z,19.40
2022-12-23T23:16:50.242Z,19.70
2022-12-23T23:19:20.728Z,22.30
2022-12-23T23:21:49.099Z,19.20
2022-12-23T23:24:17.860Z,19.70
2022-12-23T23:26:46.211Z,17.70
2022-12-23T23:29:15.334Z,19.10
2022-12-23T23:31:44.388Z,15.90
2022-12-23T23:34:14.199Z,16.70
2022-12-23T23:36:43.475Z,18.00
2022-12-23T23:39:13.065Z,17.60
2022-12-23T23:41:42.995Z,16.20
2022-12-23T23:44:12.423Z,16.40
2022-12-23T23:46:40.664Z,16.50
2022-12-23T23:49:09.532Z,16.80
2022-12-23T23:51:39.445Z,15.70
2022-12-23T23:54:08.440Z,14.80
2022-12-23T23:56:39.410Z,14.20
2022-12-23T23:59:09.367Z,15.70
